Royal Melbourne — WDC2865 — position and weather

sailwx.info

Track history (hours):
 
Tides and Currents Weather Stations Pressure Air Temp Water Temp Dewpoint Dewpoint Depression Visibility Wind Speed Wind Dir Waves Ship Positions

Royal Melbourne

Owner: Harley Marine Services, Inc, Seattle, WA. More information available from US FCC via Universal Licensing System and Coast Guard Vessel Documentation Center.

Last reported at 2015-Apr-18 02:29 UTC. Time now 2015-Apr-18 03:27 UTC.
Position N 38°03' W 122°16'.

Length 30 m; draft 2 m.

Type: Tug. MMSI: 366998830.

Date/timePositionNaut miles runAvg speedWind from/ knotsBaromVisibWave heightAir tempDewpointWater temp
2015-Apr-18 02:29N 38°03' W 122°16'0 0.0
2015-Apr-18 01:23N 38°03' W 122°16'0 0.0
2015-Apr-18 00:29N 38°03' W 122°16'0 0.0
2015-Apr-17 23:11N 38°03' W 122°16'0 0.0
2015-Apr-17 22:29N 38°03' W 122°16'0 0.0
2015-Apr-17 21:23N 38°03' W 122°16'0 0.0
2015-Apr-17 20:29N 38°03' W 122°16'0 0.0
2015-Apr-17 19:33N 38°03' W 122°16'8 7.8
2015-Apr-17 18:33N 37°60' W 122°24'9 9.3
2015-Apr-17 17:33N 37°51' W 122°23'6 5.6
2015-Apr-17 16:33N 37°48' W 122°17'0 0.0
2015-Apr-17 15:33N 37°48' W 122°17'0 0.0
2015-Apr-17 14:33N 37°48' W 122°17'0 0.0
2015-Apr-17 13:33N 37°48' W 122°17'0 0.0
2015-Apr-17 12:33N 37°48' W 122°17'0 0.0
2015-Apr-17 11:33N 37°48' W 122°17'0 0.0
2015-Apr-17 10:33N 37°48' W 122°17'0 0.0
2015-Apr-17 09:33N 37°48' W 122°17'0 0.0
2015-Apr-17 08:33N 37°48' W 122°17'0 0.0
2015-Apr-17 07:33N 37°48' W 122°17'0 0.0
2015-Apr-17 06:33N 37°48' W 122°17'0 0.1
2015-Apr-17 05:34N 37°48' W 122°17'4 4.1
2015-Apr-17 04:33N 37°46' W 122°22'0 0.4
2015-Apr-17 03:33N 37°46' W 122°22'0 0.3
2015-Apr-17 02:30N 37°46' W 122°23'0 0.0
2015-Apr-17 01:33N 37°46' W 122°23'0 0.0
2015-Apr-17 00:33N 37°46' W 122°23'0 0.0
2015-Apr-16 23:33N 37°46' W 122°23'0 0.0
2015-Apr-16 22:33N 37°46' W 122°23'0 0.0
2015-Apr-16 21:33N 37°46' W 122°23'0 0.0
2015-Apr-16 20:33N 37°46' W 122°23'4 4.2
2015-Apr-16 19:33N 37°51' W 122°24'5 4.8
2015-Apr-16 18:33N 37°55' W 122°22'0 0.0
2015-Apr-16 17:33N 37°55' W 122°22'0 0.0
2015-Apr-16 16:33N 37°55' W 122°22'0 0.0
2015-Apr-16 15:33N 37°55' W 122°22'0 0.0
2015-Apr-16 14:33N 37°55' W 122°22'0 0.0
2015-Apr-16 13:33N 37°55' W 122°22'0 0.0
2015-Apr-16 12:33N 37°55' W 122°22'1 1.2
2015-Apr-16 11:33N 37°54' W 122°23'7 6.7
2015-Apr-16 10:33N 37°48' W 122°20'1 0.6
2015-Apr-16 09:28N 37°48' W 122°19'0 0.0
2015-Apr-16 08:31N 37°48' W 122°19'0 0.0
2015-Apr-16 07:31N 37°48' W 122°19'0 0.0
2015-Apr-16 06:34N 37°48' W 122°19'0 0.0
2015-Apr-16 05:33N 37°48' W 122°19'0 0.0
2015-Apr-16 04:30N 37°48' W 122°19'0 0.0
2015-Apr-16 03:33N 37°48' W 122°19'2 2.1
2015-Apr-16 02:33N 37°49' W 122°21'6 5.7
2015-Apr-16 01:33N 37°54' W 122°24'2 2.0
2015-Apr-16 00:31N 37°55' W 122°22'0 0.0
2015-Apr-15 23:31N 37°55' W 122°22'0 0.0
2015-Apr-15 22:31N 37°55' W 122°22'0 0.0
2015-Apr-15 21:31N 37°55' W 122°22'0 0.0
2015-Apr-15 20:31N 37°55' W 122°22'0 0.0
2015-Apr-15 19:31N 37°55' W 122°22'0 0.0
2015-Apr-15 18:31N 37°55' W 122°22'0 0.0
2015-Apr-15 17:31N 37°55' W 122°22'0 0.0
2015-Apr-15 16:31N 37°55' W 122°22'0 0.0
2015-Apr-15 15:25N 37°55' W 122°22'0 0.0
2015-Apr-15 14:31N 37°55' W 122°22'0 0.0
2015-Apr-15 13:31N 37°55' W 122°22'0 0.0
2015-Apr-15 12:31N 37°55' W 122°22'0 0.0
2015-Apr-15 11:33N 37°55' W 122°22'0 0.0
2015-Apr-15 10:30N 37°55' W 122°22'0 0.0
2015-Apr-15 09:30N 37°55' W 122°22'0 0.0
2015-Apr-15 08:33N 37°55' W 122°22'4 3.9
2015-Apr-15 07:33N 37°51' W 122°23'5 4.9
2015-Apr-15 06:28N 37°48' W 122°18'0 0.0
2015-Apr-15 05:31N 37°48' W 122°18'0 0.0
2015-Apr-15 04:31N 37°48' W 122°18'0 0.0
2015-Apr-15 03:31N 37°48' W 122°18'0 0.0
2015-Apr-15 02:31N 37°48' W 122°18'1 0.6
2015-Apr-15 01:33N 37°48' W 122°19'0 0.0
2015-Apr-15 00:32N 37°48' W 122°19'0 0.0
2015-Apr-14 23:26N 37°48' W 122°19'0 0.0
2015-Apr-14 22:32N 37°48' W 122°19'0 0.0
2015-Apr-14 21:32N 37°48' W 122°19'0 0.0
2015-Apr-14 20:32N 37°48' W 122°19'2 2.0
2015-Apr-14 19:34N 37°49' W 122°21'6 6.0
2015-Apr-14 18:34N 37°54' W 122°25'2 2.4
2015-Apr-14 17:32N 37°55' W 122°22'0 0.0
2015-Apr-14 16:32N 37°55' W 122°22'0 0.0
2015-Apr-14 15:32N 37°55' W 122°22'0 0.0
2015-Apr-14 14:32N 37°55' W 122°22'0 0.0
2015-Apr-14 13:32N 37°55' W 122°22'0 0.0
2015-Apr-14 12:32N 37°55' W 122°22'0 0.0
2015-Apr-14 11:26N 37°55' W 122°22'0 0.0
2015-Apr-14 10:32N 37°55' W 122°22'0 0.0
2015-Apr-14 09:32N 37°55' W 122°22'0 0.0
2015-Apr-14 08:32N 37°55' W 122°22'0 0.0
2015-Apr-14 07:32N 37°55' W 122°22'0 0.0
2015-Apr-14 06:32N 37°55' W 122°22'0 0.0
2015-Apr-14 05:32N 37°55' W 122°22'1 1.2
2015-Apr-14 04:33N 37°54' W 122°23'7 6.9
2015-Apr-14 03:33N 37°47' W 122°22'2 1.8
2015-Apr-14 02:26N 37°46' W 122°20'0 0.0
2015-Apr-14 01:32N 37°46' W 122°20'0 0.1
2015-Apr-14 00:32N 37°46' W 122°20'0 0.1
2015-Apr-13 23:32N 37°46' W 122°20'0 0.0
2015-Apr-13 22:32N 37°46' W 122°20'1 0.9
2015-Apr-13 21:33N 37°46' W 122°21'0 0.1
2015-Apr-13 20:31N 37°46' W 122°21'0 0.0
2015-Apr-13 19:31N 37°46' W 122°21'0 0.0
2015-Apr-13 18:31N 37°46' W 122°21'0 0.0
2015-Apr-13 17:31N 37°46' W 122°21'0 0.1
2015-Apr-13 16:25N 37°46' W 122°21'0 0.1
2015-Apr-13 15:28N 37°46' W 122°21'0 0.1
2015-Apr-13 14:28N 37°45' W 122°21'0 0.0
2015-Apr-13 13:31N 37°45' W 122°21'0 0.0
2015-Apr-13 12:28N 37°45' W 122°21'0 0.0
2015-Apr-13 11:22N 37°45' W 122°21'0 0.0
2015-Apr-13 10:31N 37°45' W 122°21'0 0.1
2015-Apr-13 09:28N 37°46' W 122°21'0 0.1
2015-Apr-13 08:31N 37°46' W 122°21'0 0.0
2015-Apr-13 07:31N 37°46' W 122°21'0 0.0
2015-Apr-13 06:31N 37°46' W 122°21'0 0.0
2015-Apr-13 05:31N 37°46' W 122°21'2 2.1
2015-Apr-13 04:33N 37°48' W 122°21'1 1.3
2015-Apr-13 03:28N 37°48' W 122°19'0 0.0
2015-Apr-13 02:31N 37°48' W 122°19'0 0.0
2015-Apr-13 01:28N 37°48' W 122°19'0 0.0
2015-Apr-13 00:22N 37°48' W 122°19'0 0.0
2015-Apr-12 23:34N 37°48' W 122°19'0 0.0
2015-Apr-12 22:30N 37°48' W 122°19'1 1.2
2015-Apr-12 21:33N 37°48' W 122°20'7 6.6
2015-Apr-12 20:33N 37°54' W 122°25'3 2.6
2015-Apr-12 19:31N 37°55' W 122°22'0 0.0
2015-Apr-12 18:28N 37°55' W 122°22'0 0.0
2015-Apr-12 17:31N 37°55' W 122°22'0 0.0
2015-Apr-12 16:28N 37°55' W 122°22'0 0.0
2015-Apr-12 15:28N 37°55' W 122°22'0 0.0
2015-Apr-12 14:28N 37°55' W 122°22'0 0.0
2015-Apr-12 13:28N 37°55' W 122°22'0 0.0
2015-Apr-12 12:22N 37°55' W 122°22'0 0.0
2015-Apr-12 11:28N 37°55' W 122°22'0 0.0
2015-Apr-12 10:28N 37°55' W 122°22'0 0.0
2015-Apr-12 09:28N 37°55' W 122°22'0 0.0
2015-Apr-12 08:28N 37°55' W 122°22'0 0.0
2015-Apr-12 07:31N 37°55' W 122°22'0 0.0
2015-Apr-12 06:28N 37°55' W 122°22'0 0.0
2015-Apr-12 05:28N 37°55' W 122°22'0 0.0
2015-Apr-12 04:28N 37°55' W 122°22'0 0.0
2015-Apr-12 03:31N 37°55' W 122°22'0 0.0
2015-Apr-12 02:31N 37°55' W 122°22'0 0.0
2015-Apr-12 01:19N 37°55' W 122°22'0 0.0
2015-Apr-12 00:31N 37°55' W 122°22'0 0.0
2015-Apr-11 23:31N 37°55' W 122°22'1 0.7
2015-Apr-11 22:34N 37°54' W 122°22'5 5.2
2015-Apr-11 21:34N 37°58' W 122°26'7 7.2
2015-Apr-11 20:32N 38°03' W 122°18'2 0.9
2015-Apr-11 18:04N 38°03' W 122°16'0 0.0
2015-Apr-11 17:28N 38°03' W 122°16'0 0.0
2015-Apr-11 16:16N 38°03' W 122°16'0 0.0
2015-Apr-11 15:22N 38°03' W 122°16'0 0.0
2015-Apr-11 14:28N 38°03' W 122°16'0 0.0
2015-Apr-11 13:28N 38°03' W 122°16'0 0.0
2015-Apr-11 12:28N 38°03' W 122°16'0 0.0
2015-Apr-11 11:28N 38°03' W 122°16'0 0.0
2015-Apr-11 10:28N 38°03' W 122°16'0 0.0
2015-Apr-11 09:28N 38°03' W 122°16'0 0.0
2015-Apr-11 08:28N 38°03' W 122°16'0 0.0
2015-Apr-11 07:34N 38°03' W 122°16'5 4.6
2015-Apr-11 06:33N 38°02' W 122°21'7 7.3
2015-Apr-11 05:33N 37°55' W 122°25'9 9.2
2015-Apr-11 04:33N 37°47' W 122°21'1 1.1
2015-Apr-11 03:31N 37°46' W 122°21'0 0.1
2015-Apr-11 02:28N 37°46' W 122°21'0 0.1
2015-Apr-11 01:31N 37°45' W 122°21'0 0.1
2015-Apr-11 00:31N 37°45' W 122°21'0 0.1
2015-Apr-10 23:32N 37°45' W 122°21'0 0.0
2015-Apr-10 22:32N 37°45' W 122°21'1 0.7
2015-Apr-10 21:33N 37°46' W 122°22'0 0.0
2015-Apr-10 20:32N 37°46' W 122°22'0 0.1
2015-Apr-10 19:32N 37°46' W 122°22'0 0.3
2015-Apr-10 18:32N 37°46' W 122°22'0 0.0
2015-Apr-10 17:26N 37°46' W 122°22'0 0.0
2015-Apr-10 16:32N 37°46' W 122°22'0 0.0
2015-Apr-10 15:32N 37°46' W 122°22'0 0.0
2015-Apr-10 14:29N 37°46' W 122°22'0 0.0
2015-Apr-10 13:33N 37°46' W 122°22'2 1.7
2015-Apr-10 12:33N 37°48' W 122°23'7 6.6
2015-Apr-10 11:33N 37°54' W 122°24'2 1.7
2015-Apr-10 10:33N 37°55' W 122°22'0 0.0
2015-Apr-10 09:30N 37°55' W 122°22'0 0.0
2015-Apr-10 08:33N 37°55' W 122°22'0 0.0
2015-Apr-10 07:33N 37°55' W 122°22'0 0.0
2015-Apr-10 06:33N 37°55' W 122°22'0 0.0
2015-Apr-10 05:33N 37°55' W 122°22'0 0.0
2015-Apr-10 04:33N 37°55' W 122°22'0 0.0
2015-Apr-10 03:33N 37°55' W 122°22'0 0.0
2015-Apr-10 02:33N 37°55' W 122°22'0 0.0
2015-Apr-10 01:33N 37°55' W 122°22'0 0.0
2015-Apr-10 00:33N 37°55' W 122°22'0 0.0
2015-Apr-09 23:33N 37°55' W 122°22'0 0.0
2015-Apr-09 22:33N 37°55' W 122°22'0 0.0
2015-Apr-09 21:33N 37°55' W 122°22'0 0.0
2015-Apr-09 20:30N 37°55' W 122°22'2 1.8
2015-Apr-09 19:33N 37°54' W 122°24'6 5.6
2015-Apr-09 18:33N 37°49' W 122°21'4 3.8
2015-Apr-09 17:33N 37°48' W 122°17'0 0.0
2015-Apr-09 16:33N 37°48' W 122°17'0 0.0
2015-Apr-09 15:33N 37°48' W 122°17'0 0.0
2015-Apr-09 14:33N 37°48' W 122°17'0 0.0
2015-Apr-09 13:30N 37°48' W 122°17'0 0.0
2015-Apr-09 12:33N 37°48' W 122°17'0 0.0
2015-Apr-09 11:33N 37°48' W 122°17'0 0.0
2015-Apr-09 10:33N 37°48' W 122°17'3 3.4
2015-Apr-09 09:33N 37°46' W 122°21'1 0.6
2015-Apr-09 08:28N 37°45' W 122°21'0 0.0
2015-Apr-09 07:31N 37°45' W 122°21'0 0.0
2015-Apr-09 06:31N 37°45' W 122°21'0 0.0
2015-Apr-09 05:28N 37°45' W 122°20'0 0.1
2015-Apr-09 04:31N 37°45' W 122°21'3 3.0
2015-Apr-09 03:33N 37°48' W 122°20'3 2.6
2015-Apr-09 02:33N 37°48' W 122°17'0 0.0
2015-Apr-09 01:33N 37°48' W 122°17'0 0.0
2015-Apr-09 00:33N 37°48' W 122°17'0 0.0
2015-Apr-08 23:34N 37°48' W 122°17'3 3.0
2015-Apr-08 22:34N 37°46' W 122°20'0 0.0
2015-Apr-08 21:30N 37°46' W 122°20'0 0.0
2015-Apr-08 20:30N 37°46' W 122°20'0 0.0
2015-Apr-08 19:33N 37°46' W 122°20'1 1.0
2015-Apr-08 18:31N 37°45' W 122°21'0 0.0
2015-Apr-08 17:31N 37°45' W 122°21'0 0.2
2015-Apr-08 16:31N 37°46' W 122°21'0 0.0
2015-Apr-08 15:31N 37°46' W 122°21'0 0.1
2015-Apr-08 14:33N 37°46' W 122°21'5 5.0
2015-Apr-08 13:33N 37°50' W 122°24'4 4.4
2015-Apr-08 12:33N 37°55' W 122°22'0 0.5
2015-Apr-08 11:32N 37°55' W 122°22'0 0.0
2015-Apr-08 10:32N 37°55' W 122°22'0 0.0
2015-Apr-08 09:32N 37°55' W 122°22'0 0.0
2015-Apr-08 08:32N 37°55' W 122°22'0 0.0
2015-Apr-08 07:31N 37°55' W 122°22'0 0.0
2015-Apr-08 06:31N 37°55' W 122°22'0 0.0
2015-Apr-08 05:31N 37°55' W 122°22'0 0.0
2015-Apr-08 04:31N 37°55' W 122°22'0 0.0
2015-Apr-08 03:31N 37°55' W 122°22'0 0.0
2015-Apr-08 02:31N 37°55' W 122°22'  
Track history (hours):
 
Tides and Currents Weather Stations Pressure Air Temp Water Temp Dewpoint Dewpoint Depression Visibility Wind Speed Wind Dir Waves Ship Positions

Royal Melbourne

Owner: Harley Marine Services, Inc, Seattle, WA. More information available from US FCC via Universal Licensing System and Coast Guard Vessel Documentation Center.

Last reported at 2015-Apr-18 02:29 UTC. Time now 2015-Apr-18 03:27 UTC.
Position N 38°03' W 122°16'.

Length 30 m; draft 2 m.

Type: Tug. MMSI: 366998830.

Date/timePositionNaut miles runAvg speedWind from/ knotsBaromVisibWave heightAir tempDewpointWater temp
2015-Apr-18 02:29N 38°03' W 122°16'0 0.0
2015-Apr-18 01:23N 38°03' W 122°16'0 0.0
2015-Apr-18 00:29N 38°03' W 122°16'0 0.0
2015-Apr-17 23:11N 38°03' W 122°16'0 0.0
2015-Apr-17 22:29N 38°03' W 122°16'0 0.0
2015-Apr-17 21:23N 38°03' W 122°16'0 0.0
2015-Apr-17 20:29N 38°03' W 122°16'0 0.0
2015-Apr-17 19:33N 38°03' W 122°16'8 7.8
2015-Apr-17 18:33N 37°60' W 122°24'9 9.3
2015-Apr-17 17:33N 37°51' W 122°23'6 5.6
2015-Apr-17 16:33N 37°48' W 122°17'0 0.0
2015-Apr-17 15:33N 37°48' W 122°17'0 0.0
2015-Apr-17 14:33N 37°48' W 122°17'0 0.0
2015-Apr-17 13:33N 37°48' W 122°17'0 0.0
2015-Apr-17 12:33N 37°48' W 122°17'0 0.0
2015-Apr-17 11:33N 37°48' W 122°17'0 0.0
2015-Apr-17 10:33N 37°48' W 122°17'0 0.0
2015-Apr-17 09:33N 37°48' W 122°17'0 0.0
2015-Apr-17 08:33N 37°48' W 122°17'0 0.0
2015-Apr-17 07:33N 37°48' W 122°17'0 0.0
2015-Apr-17 06:33N 37°48' W 122°17'0 0.1
2015-Apr-17 05:34N 37°48' W 122°17'4 4.1
2015-Apr-17 04:33N 37°46' W 122°22'0 0.4
2015-Apr-17 03:33N 37°46' W 122°22'0 0.3
2015-Apr-17 02:30N 37°46' W 122°23'0 0.0
2015-Apr-17 01:33N 37°46' W 122°23'0 0.0
2015-Apr-17 00:33N 37°46' W 122°23'0 0.0
2015-Apr-16 23:33N 37°46' W 122°23'0 0.0
2015-Apr-16 22:33N 37°46' W 122°23'0 0.0
2015-Apr-16 21:33N 37°46' W 122°23'0 0.0
2015-Apr-16 20:33N 37°46' W 122°23'4 4.2
2015-Apr-16 19:33N 37°51' W 122°24'5 4.8
2015-Apr-16 18:33N 37°55' W 122°22'0 0.0
2015-Apr-16 17:33N 37°55' W 122°22'0 0.0
2015-Apr-16 16:33N 37°55' W 122°22'0 0.0
2015-Apr-16 15:33N 37°55' W 122°22'0 0.0
2015-Apr-16 14:33N 37°55' W 122°22'0 0.0
2015-Apr-16 13:33N 37°55' W 122°22'0 0.0
2015-Apr-16 12:33N 37°55' W 122°22'1 1.2
2015-Apr-16 11:33N 37°54' W 122°23'7 6.7
2015-Apr-16 10:33N 37°48' W 122°20'1 0.6
2015-Apr-16 09:28N 37°48' W 122°19'0 0.0
2015-Apr-16 08:31N 37°48' W 122°19'0 0.0
2015-Apr-16 07:31N 37°48' W 122°19'0 0.0
2015-Apr-16 06:34N 37°48' W 122°19'0 0.0
2015-Apr-16 05:33N 37°48' W 122°19'0 0.0
2015-Apr-16 04:30N 37°48' W 122°19'0 0.0
2015-Apr-16 03:33N 37°48' W 122°19'2 2.1
2015-Apr-16 02:33N 37°49' W 122°21'6 5.7
2015-Apr-16 01:33N 37°54' W 122°24'2 2.0
2015-Apr-16 00:31N 37°55' W 122°22'0 0.0
2015-Apr-15 23:31N 37°55' W 122°22'0 0.0
2015-Apr-15 22:31N 37°55' W 122°22'0 0.0
2015-Apr-15 21:31N 37°55' W 122°22'0 0.0
2015-Apr-15 20:31N 37°55' W 122°22'0 0.0
2015-Apr-15 19:31N 37°55' W 122°22'0 0.0
2015-Apr-15 18:31N 37°55' W 122°22'0 0.0
2015-Apr-15 17:31N 37°55' W 122°22'0 0.0
2015-Apr-15 16:31N 37°55' W 122°22'0 0.0
2015-Apr-15 15:25N 37°55' W 122°22'0 0.0
2015-Apr-15 14:31N 37°55' W 122°22'0 0.0
2015-Apr-15 13:31N 37°55' W 122°22'0 0.0
2015-Apr-15 12:31N 37°55' W 122°22'0 0.0
2015-Apr-15 11:33N 37°55' W 122°22'0 0.0
2015-Apr-15 10:30N 37°55' W 122°22'0 0.0
2015-Apr-15 09:30N 37°55' W 122°22'0 0.0
2015-Apr-15 08:33N 37°55' W 122°22'4 3.9
2015-Apr-15 07:33N 37°51' W 122°23'5 4.9
2015-Apr-15 06:28N 37°48' W 122°18'0 0.0
2015-Apr-15 05:31N 37°48' W 122°18'0 0.0
2015-Apr-15 04:31N 37°48' W 122°18'0 0.0
2015-Apr-15 03:31N 37°48' W 122°18'0 0.0
2015-Apr-15 02:31N 37°48' W 122°18'1 0.6
2015-Apr-15 01:33N 37°48' W 122°19'0 0.0
2015-Apr-15 00:32N 37°48' W 122°19'0 0.0
2015-Apr-14 23:26N 37°48' W 122°19'0 0.0
2015-Apr-14 22:32N 37°48' W 122°19'0 0.0
2015-Apr-14 21:32N 37°48' W 122°19'0 0.0
2015-Apr-14 20:32N 37°48' W 122°19'2 2.0
2015-Apr-14 19:34N 37°49' W 122°21'6 6.0
2015-Apr-14 18:34N 37°54' W 122°25'2 2.4
2015-Apr-14 17:32N 37°55' W 122°22'0 0.0
2015-Apr-14 16:32N 37°55' W 122°22'0 0.0
2015-Apr-14 15:32N 37°55' W 122°22'0 0.0
2015-Apr-14 14:32N 37°55' W 122°22'0 0.0
2015-Apr-14 13:32N 37°55' W 122°22'0 0.0
2015-Apr-14 12:32N 37°55' W 122°22'0 0.0
2015-Apr-14 11:26N 37°55' W 122°22'0 0.0
2015-Apr-14 10:32N 37°55' W 122°22'0 0.0
2015-Apr-14 09:32N 37°55' W 122°22'0 0.0
2015-Apr-14 08:32N 37°55' W 122°22'0 0.0
2015-Apr-14 07:32N 37°55' W 122°22'0 0.0
2015-Apr-14 06:32N 37°55' W 122°22'0 0.0
2015-Apr-14 05:32N 37°55' W 122°22'1 1.2
2015-Apr-14 04:33N 37°54' W 122°23'7 6.9
2015-Apr-14 03:33N 37°47' W 122°22'2 1.8
2015-Apr-14 02:26N 37°46' W 122°20'0 0.0
2015-Apr-14 01:32N 37°46' W 122°20'0 0.1
2015-Apr-14 00:32N 37°46' W 122°20'0 0.1
2015-Apr-13 23:32N 37°46' W 122°20'0 0.0
2015-Apr-13 22:32N 37°46' W 122°20'1 0.9
2015-Apr-13 21:33N 37°46' W 122°21'0 0.1
2015-Apr-13 20:31N 37°46' W 122°21'0 0.0
2015-Apr-13 19:31N 37°46' W 122°21'0 0.0
2015-Apr-13 18:31N 37°46' W 122°21'0 0.0
2015-Apr-13 17:31N 37°46' W 122°21'0 0.1
2015-Apr-13 16:25N 37°46' W 122°21'0 0.1
2015-Apr-13 15:28N 37°46' W 122°21'0 0.1
2015-Apr-13 14:28N 37°45' W 122°21'0 0.0
2015-Apr-13 13:31N 37°45' W 122°21'0 0.0
2015-Apr-13 12:28N 37°45' W 122°21'0 0.0
2015-Apr-13 11:22N 37°45' W 122°21'0 0.0
2015-Apr-13 10:31N 37°45' W 122°21'0 0.1
2015-Apr-13 09:28N 37°46' W 122°21'0 0.1
2015-Apr-13 08:31N 37°46' W 122°21'0 0.0
2015-Apr-13 07:31N 37°46' W 122°21'0 0.0
2015-Apr-13 06:31N 37°46' W 122°21'0 0.0
2015-Apr-13 05:31N 37°46' W 122°21'2 2.1
2015-Apr-13 04:33N 37°48' W 122°21'1 1.3
2015-Apr-13 03:28N 37°48' W 122°19'0 0.0
2015-Apr-13 02:31N 37°48' W 122°19'0 0.0
2015-Apr-13 01:28N 37°48' W 122°19'0 0.0
2015-Apr-13 00:22N 37°48' W 122°19'0 0.0
2015-Apr-12 23:34N 37°48' W 122°19'0 0.0
2015-Apr-12 22:30N 37°48' W 122°19'1 1.2
2015-Apr-12 21:33N 37°48' W 122°20'7 6.6
2015-Apr-12 20:33N 37°54' W 122°25'3 2.6
2015-Apr-12 19:31N 37°55' W 122°22'0 0.0
2015-Apr-12 18:28N 37°55' W 122°22'0 0.0
2015-Apr-12 17:31N 37°55' W 122°22'0 0.0
2015-Apr-12 16:28N 37°55' W 122°22'0 0.0
2015-Apr-12 15:28N 37°55' W 122°22'0 0.0
2015-Apr-12 14:28N 37°55' W 122°22'0 0.0
2015-Apr-12 13:28N 37°55' W 122°22'0 0.0
2015-Apr-12 12:22N 37°55' W 122°22'0 0.0
2015-Apr-12 11:28N 37°55' W 122°22'0 0.0
2015-Apr-12 10:28N 37°55' W 122°22'0 0.0
2015-Apr-12 09:28N 37°55' W 122°22'0 0.0
2015-Apr-12 08:28N 37°55' W 122°22'0 0.0
2015-Apr-12 07:31N 37°55' W 122°22'0 0.0
2015-Apr-12 06:28N 37°55' W 122°22'0 0.0
2015-Apr-12 05:28N 37°55' W 122°22'0 0.0
2015-Apr-12 04:28N 37°55' W 122°22'0 0.0
2015-Apr-12 03:31N 37°55' W 122°22'0 0.0
2015-Apr-12 02:31N 37°55' W 122°22'0 0.0
2015-Apr-12 01:19N 37°55' W 122°22'0 0.0
2015-Apr-12 00:31N 37°55' W 122°22'0 0.0
2015-Apr-11 23:31N 37°55' W 122°22'1 0.7
2015-Apr-11 22:34N 37°54' W 122°22'5 5.2
2015-Apr-11 21:34N 37°58' W 122°26'7 7.2
2015-Apr-11 20:32N 38°03' W 122°18'2 0.9
2015-Apr-11 18:04N 38°03' W 122°16'0 0.0
2015-Apr-11 17:28N 38°03' W 122°16'0 0.0
2015-Apr-11 16:16N 38°03' W 122°16'0 0.0
2015-Apr-11 15:22N 38°03' W 122°16'0 0.0
2015-Apr-11 14:28N 38°03' W 122°16'0 0.0
2015-Apr-11 13:28N 38°03' W 122°16'0 0.0
2015-Apr-11 12:28N 38°03' W 122°16'0 0.0
2015-Apr-11 11:28N 38°03' W 122°16'0 0.0
2015-Apr-11 10:28N 38°03' W 122°16'0 0.0
2015-Apr-11 09:28N 38°03' W 122°16'0 0.0
2015-Apr-11 08:28N 38°03' W 122°16'0 0.0
2015-Apr-11 07:34N 38°03' W 122°16'5 4.6
2015-Apr-11 06:33N 38°02' W 122°21'7 7.3
2015-Apr-11 05:33N 37°55' W 122°25'9 9.2
2015-Apr-11 04:33N 37°47' W 122°21'1 1.1
2015-Apr-11 03:31N 37°46' W 122°21'0 0.1
2015-Apr-11 02:28N 37°46' W 122°21'0 0.1
2015-Apr-11 01:31N 37°45' W 122°21'0 0.1
2015-Apr-11 00:31N 37°45' W 122°21'0 0.1
2015-Apr-10 23:32N 37°45' W 122°21'0 0.0
2015-Apr-10 22:32N 37°45' W 122°21'1 0.7
2015-Apr-10 21:33N 37°46' W 122°22'0 0.0
2015-Apr-10 20:32N 37°46' W 122°22'0 0.1
2015-Apr-10 19:32N 37°46' W 122°22'0 0.3
2015-Apr-10 18:32N 37°46' W 122°22'0 0.0
2015-Apr-10 17:26N 37°46' W 122°22'0 0.0
2015-Apr-10 16:32N 37°46' W 122°22'0 0.0
2015-Apr-10 15:32N 37°46' W 122°22'0 0.0
2015-Apr-10 14:29N 37°46' W 122°22'0 0.0
2015-Apr-10 13:33N 37°46' W 122°22'2 1.7
2015-Apr-10 12:33N 37°48' W 122°23'7 6.6
2015-Apr-10 11:33N 37°54' W 122°24'2 1.7
2015-Apr-10 10:33N 37°55' W 122°22'0 0.0
2015-Apr-10 09:30N 37°55' W 122°22'0 0.0
2015-Apr-10 08:33N 37°55' W 122°22'0 0.0
2015-Apr-10 07:33N 37°55' W 122°22'0 0.0
2015-Apr-10 06:33N 37°55' W 122°22'0 0.0
2015-Apr-10 05:33N 37°55' W 122°22'0 0.0
2015-Apr-10 04:33N 37°55' W 122°22'0 0.0
2015-Apr-10 03:33N 37°55' W 122°22'0 0.0
2015-Apr-10 02:33N 37°55' W 122°22'0 0.0
2015-Apr-10 01:33N 37°55' W 122°22'0 0.0
2015-Apr-10 00:33N 37°55' W 122°22'0 0.0
2015-Apr-09 23:33N 37°55' W 122°22'0 0.0
2015-Apr-09 22:33N 37°55' W 122°22'0 0.0
2015-Apr-09 21:33N 37°55' W 122°22'0 0.0
2015-Apr-09 20:30N 37°55' W 122°22'2 1.8
2015-Apr-09 19:33N 37°54' W 122°24'6 5.6
2015-Apr-09 18:33N 37°49' W 122°21'4 3.8
2015-Apr-09 17:33N 37°48' W 122°17'0 0.0
2015-Apr-09 16:33N 37°48' W 122°17'0 0.0
2015-Apr-09 15:33N 37°48' W 122°17'0 0.0
2015-Apr-09 14:33N 37°48' W 122°17'0 0.0
2015-Apr-09 13:30N 37°48' W 122°17'0 0.0
2015-Apr-09 12:33N 37°48' W 122°17'0 0.0
2015-Apr-09 11:33N 37°48' W 122°17'0 0.0
2015-Apr-09 10:33N 37°48' W 122°17'3 3.4
2015-Apr-09 09:33N 37°46' W 122°21'1 0.6
2015-Apr-09 08:28N 37°45' W 122°21'0 0.0
2015-Apr-09 07:31N 37°45' W 122°21'0 0.0
2015-Apr-09 06:31N 37°45' W 122°21'0 0.0
2015-Apr-09 05:28N 37°45' W 122°20'0 0.1
2015-Apr-09 04:31N 37°45' W 122°21'3 3.0
2015-Apr-09 03:33N 37°48' W 122°20'3 2.6
2015-Apr-09 02:33N 37°48' W 122°17'0 0.0
2015-Apr-09 01:33N 37°48' W 122°17'0 0.0
2015-Apr-09 00:33N 37°48' W 122°17'0 0.0
2015-Apr-08 23:34N 37°48' W 122°17'3 3.0
2015-Apr-08 22:34N 37°46' W 122°20'0 0.0
2015-Apr-08 21:30N 37°46' W 122°20'0 0.0
2015-Apr-08 20:30N 37°46' W 122°20'0 0.0
2015-Apr-08 19:33N 37°46' W 122°20'1 1.0
2015-Apr-08 18:31N 37°45' W 122°21'0 0.0
2015-Apr-08 17:31N 37°45' W 122°21'0 0.2
2015-Apr-08 16:31N 37°46' W 122°21'0 0.0
2015-Apr-08 15:31N 37°46' W 122°21'0 0.1
2015-Apr-08 14:33N 37°46' W 122°21'5 5.0
2015-Apr-08 13:33N 37°50' W 122°24'4 4.4
2015-Apr-08 12:33N 37°55' W 122°22'0 0.5
2015-Apr-08 11:32N 37°55' W 122°22'0 0.0
2015-Apr-08 10:32N 37°55' W 122°22'0 0.0
2015-Apr-08 09:32N 37°55' W 122°22'0 0.0
2015-Apr-08 08:32N 37°55' W 122°22'0 0.0
2015-Apr-08 07:31N 37°55' W 122°22'0 0.0
2015-Apr-08 06:31N 37°55' W 122°22'0 0.0
2015-Apr-08 05:31N 37°55' W 122°22'0 0.0
2015-Apr-08 04:31N 37°55' W 122°22'0 0.0
2015-Apr-08 03:31N 37°55' W 122°22'0 0.0
2015-Apr-08 02:31N 37°55' W 122°22'  

Dump ship's entire track history